sensor_id;sensor_type;location;lat;lon;timestamp;pressure;altitude;pressure_sealevel;temperature;humidity
78206;BME280;67480;48.920;12.880;2024-03-22T00:00:46;97658.09;;;8.39;71.90
78206;BME280;67480;48.920;12.880;2024-03-22T00:10:51;97649.41;;;8.38;71.92
78206;BME280;67480;48.920;12.880;2024-03-22T00:17:00;97639.28;;;8.28;71.89
78206;BME280;67480;48.920;12.880;2024-03-22T00:20:24;97642.53;;;8.30;71.76
78206;BME280;67480;48.920;12.880;2024-03-22T00:23:36;97651.72;;;8.26;71.52
78206;BME280;67480;48.920;12.880;2024-03-22T00:26:58;97640.84;;;8.23;71.26
78206;BME280;67480;48.920;12.880;2024-03-22T00:29:26;97633.41;;;8.20;71.69
78206;BME280;67480;48.920;12.880;2024-03-22T00:32:16;97633.81;;;8.23;71.96
78206;BME280;67480;48.920;12.880;2024-03-22T00:35:39;97628.56;;;8.17;71.94
78206;BME280;67480;48.920;12.880;2024-03-22T00:38:47;97617.03;;;8.11;72.13
78206;BME280;67480;48.920;12.880;2024-03-22T00:41:59;97615.06;;;8.13;71.91
78206;BME280;67480;48.920;12.880;2024-03-22T00:45:12;97622.91;;;8.13;71.39
78206;BME280;67480;48.920;12.880;2024-03-22T00:51:31;97615.06;;;8.13;72.51
78206;BME280;67480;48.920;12.880;2024-03-22T00:54:17;97613.44;;;8.12;73.01
78206;BME280;67480;48.920;12.880;2024-03-22T01:07:25;97601.00;;;8.14;72.28
78206;BME280;67480;48.920;12.880;2024-03-22T01:10:40;97596.53;;;8.08;72.32
78206;BME280;67480;48.920;12.880;2024-03-22T01:13:52;97589.69;;;8.07;71.85
78206;BME280;67480;48.920;12.880;2024-03-22T01:16:43;97588.06;;;8.06;71.95
78206;BME280;67480;48.920;12.880;2024-03-22T01:19:25;97595.28;;;8.04;72.23
78206;BME280;67480;48.920;12.880;2024-03-22T01:22:02;97592.88;;;8.02;72.40
78206;BME280;67480;48.920;12.880;2024-03-22T01:25:02;97603.75;;;8.06;71.95
78206;BME280;67480;48.920;12.880;2024-03-22T01:27:56;97605.53;;;8.05;71.72
78206;BME280;67480;48.920;12.880;2024-03-22T01:34:48;97604.13;;;8.03;72.13
78206;BME280;67480;48.920;12.880;2024-03-22T01:41:49;97602.13;;;8.05;72.54
78206;BME280;67480;48.920;12.880;2024-03-22T01:45:11;97603.19;;;8.10;72.49
78206;BME280;67480;48.920;12.880;2024-03-22T01:48:18;97588.88;;;8.06;72.39
78206;BME280;67480;48.920;12.880;2024-03-22T01:51:44;97595.16;;;8.12;72.42
78206;BME280;67480;48.920;12.880;2024-03-22T01:54:57;97592.81;;;8.17;71.96
78206;BME280;67480;48.920;12.880;2024-03-22T01:58:30;97588.59;;;8.16;72.02
78206;BME280;67480;48.920;12.880;2024-03-22T02:02:07;97581.72;;;8.15;72.18
78206;BME280;67480;48.920;12.880;2024-03-22T02:05:17;97578.88;;;8.10;72.07
78206;BME280;67480;48.920;12.880;2024-03-22T02:08:49;97586.16;;;8.14;72.39
78206;BME280;67480;48.920;12.880;2024-03-22T02:33:14;97567.50;;;8.18;72.67
78206;BME280;67480;48.920;12.880;2024-03-22T02:50:24;97563.44;;;8.15;71.44
78206;BME280;67480;48.920;12.880;2024-03-22T02:57:00;97558.22;;;8.15;71.50
78206;BME280;67480;48.920;12.880;2024-03-22T02:59:33;97552.75;;;8.10;71.37
78206;BME280;67480;48.920;12.880;2024-03-22T03:02:14;97559.88;;;8.16;71.59
78206;BME280;67480;48.920;12.880;2024-03-22T03:05:15;97549.19;;;8.11;71.54
78206;BME280;67480;48.920;12.880;2024-03-22T03:07:56;97540.34;;;8.12;71.51
78206;BME280;67480;48.920;12.880;2024-03-22T03:10:35;97549.81;;;8.13;71.56
78206;BME280;67480;48.920;12.880;2024-03-22T03:13:44;97550.41;;;8.15;71.40
78206;BME280;67480;48.920;12.880;2024-03-22T03:16:32;97542.78;;;8.13;71.76
78206;BME280;67480;48.920;12.880;2024-03-22T03:19:12;97549.41;;;8.16;71.42
78206;BME280;67480;48.920;12.880;2024-03-22T03:22:09;97544.56;;;8.13;71.61
78206;BME280;67480;48.920;12.880;2024-03-22T03:25:15;97538.72;;;8.11;71.73
78206;BME280;67480;48.920;12.880;2024-03-22T03:28:25;97537.09;;;8.10;71.77
78206;BME280;67480;48.920;12.880;2024-03-22T03:31:59;97531.53;;;8.13;72.12
78206;BME280;67480;48.920;12.880;2024-03-22T03:35:27;97525.06;;;8.09;72.47
78206;BME280;67480;48.920;12.880;2024-03-22T03:38:18;97525.47;;;8.12;71.96
78206;BME280;67480;48.920;12.880;2024-03-22T03:41:10;97535.91;;;8.12;72.30
78206;BME280;67480;48.920;12.880;2024-03-22T03:44:18;97515.66;;;8.14;72.25
78206;BME280;67480;48.920;12.880;2024-03-22T03:46:50;97515.47;;;8.16;72.11
78206;BME280;67480;48.920;12.880;2024-03-22T03:50:03;97511.00;;;8.10;72.37
78206;BME280;67480;48.920;12.880;2024-03-22T03:53:51;97512.19;;;8.07;72.72
78206;BME280;67480;48.920;12.880;2024-03-22T04:03:39;97509.38;;;8.09;72.62
78206;BME280;67480;48.920;12.880;2024-03-22T04:09:58;97510.41;;;8.08;72.84
78206;BME280;67480;48.920;12.880;2024-03-22T04:20:39;97512.19;;;8.07;72.70
78206;BME280;67480;48.920;12.880;2024-03-22T04:27:39;97502.56;;;8.08;72.71
78206;BME280;67480;48.920;12.880;2024-03-22T04:31:08;97501.56;;;8.09;72.23
78206;BME280;67480;48.920;12.880;2024-03-22T04:34:33;97500.94;;;8.07;72.00
78206;BME280;67480;48.920;12.880;2024-03-22T04:38:28;97494.47;;;8.03;71.75
78206;BME280;67480;48.920;12.880;2024-03-22T04:42:04;97494.44;;;7.96;71.58
78206;BME280;67480;48.920;12.880;2024-03-22T05:12:46;97508.56;;;7.80;70.97
78206;BME280;67480;48.920;12.880;2024-03-22T05:34:18;97482.84;;;7.77;71.05
78206;BME280;67480;48.920;12.880;2024-03-22T05:40:41;97475.97;;;7.76;71.23
78206;BME280;67480;48.920;12.880;2024-03-22T05:43:17;97481.84;;;7.78;71.45
78206;BME280;67480;48.920;12.880;2024-03-22T05:46:08;97479.22;;;7.78;71.61
78206;BME280;67480;48.920;12.880;2024-03-22T05:49:01;97478.41;;;7.78;71.98
78206;BME280;67480;48.920;12.880;2024-03-22T05:51:43;97483.47;;;7.79;72.19
78206;BME280;67480;48.920;12.880;2024-03-22T06:01:29;97497.06;;;7.75;72.00
78206;BME280;67480;48.920;12.880;2024-03-22T06:04:32;97498.66;;;7.76;72.21
78206;BME280;67480;48.920;12.880;2024-03-22T06:07:56;97505.88;;;7.74;72.62
78206;BME280;67480;48.920;12.880;2024-03-22T06:10:36;97505.31;;;7.78;72.14
78206;BME280;67480;48.920;12.880;2024-03-22T06:13:46;97503.72;;;7.77;72.33
78206;BME280;67480;48.920;12.880;2024-03-22T06:16:12;97495.50;;;7.80;72.41
78206;BME280;67480;48.920;12.880;2024-03-22T06:19:04;97485.63;;;7.76;72.55
78206;BME280;67480;48.920;12.880;2024-03-22T06:22:08;97495.88;;;7.77;72.67
78206;BME280;67480;48.920;12.880;2024-03-22T06:25:09;97491.47;;;7.78;72.56
78206;BME280;67480;48.920;12.880;2024-03-22T06:28:22;97488.22;;;7.76;72.75
78206;BME280;67480;48.920;12.880;2024-03-22T06:31:31;97479.44;;;7.77;72.62
78206;BME280;67480;48.920;12.880;2024-03-22T06:41:17;97477.88;;;7.82;73.35
78206;BME280;67480;48.920;12.880;2024-03-22T06:43:52;97476.69;;;7.85;73.06
78206;BME280;67480;48.920;12.880;2024-03-22T06:46:35;97477.88;;;7.82;73.10
78206;BME280;67480;48.920;12.880;2024-03-22T06:49:17;97471.47;;;7.85;73.91
78206;BME280;67480;48.920;12.880;2024-03-22T06:52:08;97475.84;;;7.84;73.93
78206;BME280;67480;48.920;12.880;2024-03-22T06:55:25;97478.03;;;7.81;73.12
78206;BME280;67480;48.920;12.880;2024-03-22T06:59:00;97482.72;;;7.85;73.15
78206;BME280;67480;48.920;12.880;2024-03-22T07:09:52;97474.50;;;7.88;73.31
78206;BME280;67480;48.920;12.880;2024-03-22T07:16:39;97467.47;;;7.89;73.97
78206;BME280;67480;48.920;12.880;2024-03-22T07:26:51;97469.53;;;7.94;74.19
78206;BME280;67480;48.920;12.880;2024-03-22T07:30:34;97464.31;;;7.94;74.26
78206;BME280;67480;48.920;12.880;2024-03-22T07:37:13;97463.53;;;8.00;74.79
78206;BME280;67480;48.920;12.880;2024-03-22T07:46:53;97456.34;;;8.02;74.60
78206;BME280;67480;48.920;12.880;2024-03-22T07:50:10;97466.41;;;8.05;74.50
78206;BME280;67480;48.920;12.880;2024-03-22T08:00:49;97447.53;;;8.09;75.57
78206;BME280;67480;48.920;12.880;2024-03-22T08:04:17;97447.53;;;8.09;75.04
78206;BME280;67480;48.920;12.880;2024-03-22T08:07:49;97430.06;;;8.10;75.00
78206;BME280;67480;48.920;12.880;2024-03-22T08:11:34;97441.56;;;8.16;75.84
78206;BME280;67480;48.920;12.880;2024-03-22T08:18:13;97437.19;;;8.23;75.28
78206;BME280;67480;48.920;12.880;2024-03-22T08:21:39;97442.44;;;8.29;75.92
78206;BME280;67480;48.920;12.880;2024-03-22T08:31:32;97429.63;;;8.34;76.08
78206;BME280;67480;48.920;12.880;2024-03-22T08:35:15;97434.81;;;8.28;77.25
78206;BME280;67480;48.920;12.880;2024-03-22T08:38:37;97439.44;;;8.32;76.11
78206;BME280;67480;48.920;12.880;2024-03-22T08:42:20;97432.63;;;8.31;75.52
78206;BME280;67480;48.920;12.880;2024-03-22T08:45:58;97440.47;;;8.38;76.15
78206;BME280;67480;48.920;12.880;2024-03-22T08:56:22;97427.66;;;8.43;75.48
78206;BME280;67480;48.920;12.880;2024-03-22T09:19:46;97401.22;;;8.66;75.97
78206;BME280;67480;48.920;12.880;2024-03-22T09:22:59;97408.31;;;8.72;75.96
78206;BME280;67480;48.920;12.880;2024-03-22T09:33:17;97402.94;;;8.87;74.95
78206;BME280;67480;48.920;12.880;2024-03-22T09:36:31;97398.34;;;8.89;75.26
78206;BME280;67480;48.920;12.880;2024-03-22T09:40:06;97401.38;;;8.93;73.90
78206;BME280;67480;48.920;12.880;2024-03-22T09:43:31;97388.03;;;8.88;74.48
78206;BME280;67480;48.920;12.880;2024-03-22T09:46:59;97387.28;;;8.94;73.79
78206;BME280;67480;48.920;12.880;2024-03-22T09:50:07;97386.88;;;8.97;73.59
78206;BME280;67480;48.920;12.880;2024-03-22T09:52:53;97382.91;;;9.01;75.22
78206;BME280;67480;48.920;12.880;2024-03-22T09:55:59;97385.72;;;9.06;74.23
78206;BME280;67480;48.920;12.880;2024-03-22T09:58:47;97379.69;;;9.12;73.58
78206;BME280;67480;48.920;12.880;2024-03-22T10:19:11;97382.34;;;9.45;75.22
78206;BME280;67480;48.920;12.880;2024-03-22T10:25:48;97368.06;;;9.61;74.91
78206;BME280;67480;48.920;12.880;2024-03-22T10:28:27;97374.09;;;9.68;73.76
78206;BME280;67480;48.920;12.880;2024-03-22T10:30:58;97362.41;;;9.64;73.42
78206;BME280;67480;48.920;12.880;2024-03-22T10:40:50;97355.97;;;9.67;74.53
78206;BME280;67480;48.920;12.880;2024-03-22T10:48:04;97351.53;;;9.74;74.20
78206;BME280;67480;48.920;12.880;2024-03-22T10:54:32;97343.69;;;9.74;73.48
78206;BME280;67480;48.920;12.880;2024-03-22T10:57:24;97341.25;;;9.86;74.54
78206;BME280;67480;48.920;12.880;2024-03-22T11:00:04;97341.84;;;9.81;74.27
78206;BME280;67480;48.920;12.880;2024-03-22T11:03:35;97324.13;;;9.90;74.37
78206;BME280;67480;48.920;12.880;2024-03-22T11:07:29;97320.09;;;9.94;73.54
78206;BME280;67480;48.920;12.880;2024-03-22T11:14:14;97295.25;;;10.10;73.41
78206;BME280;67480;48.920;12.880;2024-03-22T11:17:10;97296.28;;;10.09;73.67
78206;BME280;67480;48.920;12.880;2024-03-22T11:20:01;97301.47;;;10.15;73.97
78206;BME280;67480;48.920;12.880;2024-03-22T11:23:21;97283.34;;;10.21;73.61
78206;BME280;67480;48.920;12.880;2024-03-22T11:25:56;97286.31;;;10.31;73.91
78206;BME280;67480;48.920;12.880;2024-03-22T11:28:42;97280.06;;;10.38;73.37
78206;BME280;67480;48.920;12.880;2024-03-22T11:31:30;97272.75;;;10.41;72.84
78206;BME280;67480;48.920;12.880;2024-03-22T11:44:57;97252.94;;;10.58;73.51
78206;BME280;67480;48.920;12.880;2024-03-22T11:48:04;97245.03;;;10.65;74.03
78206;BME280;67480;48.920;12.880;2024-03-22T11:51:18;97234.31;;;10.66;74.04
78206;BME280;67480;48.920;12.880;2024-03-22T11:58:26;97222.66;;;10.62;73.61
78206;BME280;67480;48.920;12.880;2024-03-22T12:01:45;97223.63;;;10.68;73.50
78206;BME280;67480;48.920;12.880;2024-03-22T12:08:04;97212.97;;;10.63;73.76
78206;BME280;67480;48.920;12.880;2024-03-22T12:14:23;97206.44;;;10.72;74.20
78206;BME280;67480;48.920;12.880;2024-03-22T12:17:02;97205.28;;;10.68;74.21
78206;BME280;67480;48.920;12.880;2024-03-22T12:20:29;97200.41;;;10.78;73.82
78206;BME280;67480;48.920;12.880;2024-03-22T12:23:55;97191.53;;;10.79;73.84
78206;BME280;67480;48.920;12.880;2024-03-22T12:27:01;97192.34;;;10.73;74.20
78206;BME280;67480;48.920;12.880;2024-03-22T12:30:47;97186.28;;;10.79;73.64
78206;BME280;67480;48.920;12.880;2024-03-22T12:33:57;97190.66;;;10.85;73.06
78206;BME280;67480;48.920;12.880;2024-03-22T12:36:50;97188.63;;;10.87;73.49
78206;BME280;67480;48.920;12.880;2024-03-22T12:39:53;97172.09;;;10.87;73.30
78206;BME280;67480;48.920;12.880;2024-03-22T12:53:02;97157.91;;;10.94;73.10
78206;BME280;67480;48.920;12.880;2024-03-22T12:56:16;97164.78;;;10.95;73.21
78206;BME280;67480;48.920;12.880;2024-03-22T12:59:14;97152.81;;;10.99;72.80
78206;BME280;67480;48.920;12.880;2024-03-22T13:02:09;97152.81;;;10.99;72.77
78206;BME280;67480;48.920;12.880;2024-03-22T13:05:12;97147.13;;;11.02;72.94
78206;BME280;67480;48.920;12.880;2024-03-22T13:07:59;97132.44;;;11.01;73.01
78206;BME280;67480;48.920;12.880;2024-03-22T13:11:20;97133.59;;;11.05;72.77
78206;BME280;67480;48.920;12.880;2024-03-22T13:13:49;97123.09;;;11.05;72.45
78206;BME280;67480;48.920;12.880;2024-03-22T13:16:24;97104.75;;;11.05;72.32
78206;BME280;67480;48.920;12.880;2024-03-22T13:19:16;97110.72;;;11.13;72.36
78206;BME280;67480;48.920;12.880;2024-03-22T13:25:19;97099.88;;;11.09;72.01
78206;BME280;67480;48.920;12.880;2024-03-22T13:27:55;97099.81;;;11.16;71.95
78206;BME280;67480;48.920;12.880;2024-03-22T13:30:24;97072.97;;;11.14;72.19
78206;BME280;67480;48.920;12.880;2024-03-22T13:32:55;97080.22;;;11.18;71.98
78206;BME280;67480;48.920;12.880;2024-03-22T13:35:34;97081.16;;;11.24;72.07
78206;BME280;67480;48.920;12.880;2024-03-22T13:38:15;97076.94;;;11.23;71.77
78206;BME280;67480;48.920;12.880;2024-03-22T13:41:04;97070.81;;;11.29;71.58
78206;BME280;67480;48.920;12.880;2024-03-22T13:43:32;97062.13;;;11.29;71.55
78206;BME280;67480;48.920;12.880;2024-03-22T13:46:04;97062.34;;;11.27;71.22
78206;BME280;67480;48.920;12.880;2024-03-22T13:49:21;97060.31;;;11.29;70.41
78206;BME280;67480;48.920;12.880;2024-03-22T13:52:45;97050.38;;;11.31;70.52
78206;BME280;67480;48.920;12.880;2024-03-22T13:55:11;97041.50;;;11.32;70.81
78206;BME280;67480;48.920;12.880;2024-03-22T13:57:58;97033.19;;;11.35;70.42
78206;BME280;67480;48.920;12.880;2024-03-22T14:01:15;97031.47;;;11.29;69.85
78206;BME280;67480;48.920;12.880;2024-03-22T14:03:44;97026.56;;;11.33;69.47
78206;BME280;67480;48.920;12.880;2024-03-22T14:06:10;97028.75;;;11.36;69.40
78206;BME280;67480;48.920;12.880;2024-03-22T14:08:56;97034.34;;;11.39;69.21
78206;BME280;67480;48.920;12.880;2024-03-22T14:11:36;97031.84;;;11.44;69.22
78206;BME280;67480;48.920;12.880;2024-03-22T14:14:18;97017.72;;;11.45;69.37
78206;BME280;67480;48.920;12.880;2024-03-22T14:16:46;97021.50;;;11.49;69.35
78206;BME280;67480;48.920;12.880;2024-03-22T14:19:12;97019.22;;;11.53;68.75
78206;BME280;67480;48.920;12.880;2024-03-22T14:21:45;97004.72;;;11.50;68.59
78206;BME280;67480;48.920;12.880;2024-03-22T14:24:23;97000.06;;;11.53;68.75
78206;BME280;67480;48.920;12.880;2024-03-22T14:26:56;97003.41;;;11.60;68.50
78206;BME280;67480;48.920;12.880;2024-03-22T14:29:27;96999.16;;;11.59;68.44
78206;BME280;67480;48.920;12.880;2024-03-22T14:31:58;96991.28;;;11.59;68.43
78206;BME280;67480;48.920;12.880;2024-03-22T14:35:05;96986.63;;;11.61;68.15
78206;BME280;67480;48.920;12.880;2024-03-22T14:37:58;96980.91;;;11.64;68.12
78206;BME280;67480;48.920;12.880;2024-03-22T14:40:27;96984.72;;;11.68;67.89
78206;BME280;67480;48.920;12.880;2024-03-22T14:42:57;96971.94;;;11.71;67.77
78206;BME280;67480;48.920;12.880;2024-03-22T14:45:30;96981.75;;;11.76;67.73
78206;BME280;67480;48.920;12.880;2024-03-22T14:48:21;96972.72;;;11.72;67.55
78206;BME280;67480;48.920;12.880;2024-03-22T14:51:38;96976.47;;;11.76;67.51
78206;BME280;67480;48.920;12.880;2024-03-22T14:54:12;96968.50;;;11.71;67.60
78206;BME280;67480;48.920;12.880;2024-03-22T14:56:40;96964.97;;;11.77;67.41
78206;BME280;67480;48.920;12.880;2024-03-22T14:59:14;96949.09;;;11.72;67.54
78206;BME280;67480;48.920;12.880;2024-03-22T15:01:46;96947.25;;;11.72;67.55
78206;BME280;67480;48.920;12.880;2024-03-22T15:04:29;96945.88;;;11.70;67.40
78206;BME280;67480;48.920;12.880;2024-03-22T15:07:02;96937.56;;;11.73;67.53
78206;BME280;67480;48.920;12.880;2024-03-22T15:09:54;96932.31;;;11.73;67.66
78206;BME280;67480;48.920;12.880;2024-03-22T15:12:27;96934.47;;;11.76;67.58
78206;BME280;67480;48.920;12.880;2024-03-22T15:14:56;96931.97;;;11.81;67.53
78206;BME280;67480;48.920;12.880;2024-03-22T15:17:48;96931.84;;;11.76;67.28
78206;BME280;67480;48.920;12.880;2024-03-22T15:20:29;96925.94;;;11.81;67.23
78206;BME280;67480;48.920;12.880;2024-03-22T15:22:55;96926.72;;;11.81;67.54
78206;BME280;67480;48.920;12.880;2024-03-22T15:25:28;96929.13;;;11.83;67.75
78206;BME280;67480;48.920;12.880;2024-03-22T15:28:05;96911.78;;;11.82;67.71
78206;BME280;67480;48.920;12.880;2024-03-22T15:31:31;96915.31;;;11.76;67.81
78206;BME280;67480;48.920;12.880;2024-03-22T15:37:40;96902.19;;;11.76;68.19
78206;BME280;67480;48.920;12.880;2024-03-22T15:40:18;96896.84;;;11.82;68.38
78206;BME280;67480;48.920;12.880;2024-03-22T15:42:46;96902.88;;;11.83;68.49
78206;BME280;67480;48.920;12.880;2024-03-22T15:45:55;96904.94;;;11.81;68.47
78206;BME280;67480;48.920;12.880;2024-03-22T15:48:31;96897.63;;;11.83;68.60
78206;BME280;67480;48.920;12.880;2024-03-22T15:51:19;96896.47;;;11.79;68.59
78206;BME280;67480;48.920;12.880;2024-03-22T15:53:51;96882.88;;;11.82;68.66
78206;BME280;67480;48.920;12.880;2024-03-22T15:56:38;96885.88;;;11.85;68.59
78206;BME280;67480;48.920;12.880;2024-03-22T15:59:12;96876.38;;;11.84;68.09
78206;BME280;67480;48.920;12.880;2024-03-22T16:01:53;96873.53;;;11.86;68.09
78206;BME280;67480;48.920;12.880;2024-03-22T16:04:42;96883.13;;;11.80;68.08
78206;BME280;67480;48.920;12.880;2024-03-22T16:11:06;96859.84;;;11.72;68.72
78206;BME280;67480;48.920;12.880;2024-03-22T16:15:03;96863.03;;;11.74;69.33
78206;BME280;67480;48.920;12.880;2024-03-22T16:20:50;96861.88;;;11.70;69.77
78206;BME280;67480;48.920;12.880;2024-03-22T16:23:31;96859.50;;;11.68;69.53
78206;BME280;67480;48.920;12.880;2024-03-22T16:26:05;96859.84;;;11.72;69.81
78206;BME280;67480;48.920;12.880;2024-03-22T16:29:00;96859.72;;;11.67;69.77
78206;BME280;67480;48.920;12.880;2024-03-22T16:31:30;96858.34;;;11.64;70.16
78206;BME280;67480;48.920;12.880;2024-03-22T16:33:55;96848.41;;;11.66;70.25
78206;BME280;67480;48.920;12.880;2024-03-22T16:37:05;96840.88;;;11.58;70.25
78206;BME280;67480;48.920;12.880;2024-03-22T16:39:31;96847.06;;;11.64;70.25
78206;BME280;67480;48.920;12.880;2024-03-22T16:41:57;96832.78;;;11.60;70.46
78206;BME280;67480;48.920;12.880;2024-03-22T16:44:23;96835.63;;;11.58;70.26
78206;BME280;67480;48.920;12.880;2024-03-22T16:47:01;96835.88;;;11.57;70.31
78206;BME280;67480;48.920;12.880;2024-03-22T16:49:38;96829.47;;;11.53;70.76
78206;BME280;67480;48.920;12.880;2024-03-22T16:52:10;96822.19;;;11.55;70.95
78206;BME280;67480;48.920;12.880;2024-03-22T16:54:40;96817.59;;;11.50;70.67
78206;BME280;67480;48.920;12.880;2024-03-22T16:57:08;96814.06;;;11.44;71.12
78206;BME280;67480;48.920;12.880;2024-03-22T16:59:42;96803.44;;;11.39;70.76
78206;BME280;67480;48.920;12.880;2024-03-22T17:02:30;96807.09;;;11.38;71.05
78206;BME280;67480;48.920;12.880;2024-03-22T17:04:57;96811.56;;;11.38;71.13
78206;BME280;67480;48.920;12.880;2024-03-22T17:07:46;96801.16;;;11.31;70.90
78206;BME280;67480;48.920;12.880;2024-03-22T17:10:17;96812.81;;;11.35;71.24
78206;BME280;67480;48.920;12.880;2024-03-22T17:13:05;96807.56;;;11.35;71.54
78206;BME280;67480;48.920;12.880;2024-03-22T17:15:35;96799.56;;;11.30;70.92
78206;BME280;67480;48.920;12.880;2024-03-22T17:18:16;96802.44;;;11.29;71.53
78206;BME280;67480;48.920;12.880;2024-03-22T17:24:48;96791.00;;;11.23;70.82
78206;BME280;67480;48.920;12.880;2024-03-22T17:27:19;96794.19;;;11.25;71.10
78206;BME280;67480;48.920;12.880;2024-03-22T17:29:47;96794.19;;;11.25;71.26
78206;BME280;67480;48.920;12.880;2024-03-22T17:32:16;96793.63;;;11.23;71.17
78206;BME280;67480;48.920;12.880;2024-03-22T17:34:46;96791.56;;;11.25;70.76
78206;BME280;67480;48.920;12.880;2024-03-22T17:37:15;96795.69;;;11.21;71.03
78206;BME280;67480;48.920;12.880;2024-03-22T17:39:44;96795.09;;;11.19;70.59
78206;BME280;67480;48.920;12.880;2024-03-22T17:42:21;96786.09;;;11.15;70.60
78206;BME280;67480;48.920;12.880;2024-03-22T17:44:49;96780.03;;;11.14;70.71
78206;BME280;67480;48.920;12.880;2024-03-22T17:47:26;96776.47;;;11.09;70.76
78206;BME280;67480;48.920;12.880;2024-03-22T17:50:02;96784.34;;;11.09;70.54
78206;BME280;67480;48.920;12.880;2024-03-22T17:52:36;96783.34;;;11.10;70.45
78206;BME280;67480;48.920;12.880;2024-03-22T17:55:03;96775.34;;;11.04;70.40
78206;BME280;67480;48.920;12.880;2024-03-22T17:57:47;96775.34;;;11.04;70.63
78206;BME280;67480;48.920;12.880;2024-03-22T18:00:55;96773.75;;;11.03;70.64
78206;BME280;67480;48.920;12.880;2024-03-22T18:03:50;96767.69;;;11.03;70.60
78206;BME280;67480;48.920;12.880;2024-03-22T18:06:21;96767.69;;;11.03;70.45
78206;BME280;67480;48.920;12.880;2024-03-22T18:08:50;96760.88;;;11.02;70.24
78206;BME280;67480;48.920;12.880;2024-03-22T18:11:22;96766.34;;;11.00;70.44
78206;BME280;67480;48.920;12.880;2024-03-22T18:14:03;96758.13;;;10.97;70.39
78206;BME280;67480;48.920;12.880;2024-03-22T18:16:37;96757.31;;;10.96;70.43
78206;BME280;67480;48.920;12.880;2024-03-22T18:19:06;96761.56;;;10.97;70.41
78206;BME280;67480;48.920;12.880;2024-03-22T18:22:22;96762.44;;;10.91;70.41
78206;BME280;67480;48.920;12.880;2024-03-22T18:25:09;96756.63;;;10.89;70.54
78206;BME280;67480;48.920;12.880;2024-03-22T18:27:37;96756.19;;;10.92;70.84
78206;BME280;67480;48.920;12.880;2024-03-22T18:30:20;96751.94;;;10.91;70.65
78206;BME280;67480;48.920;12.880;2024-03-22T18:32:58;96749.31;;;10.91;71.21
78206;BME280;67480;48.920;12.880;2024-03-22T18:35:32;96751.41;;;10.89;71.18
78206;BME280;67480;48.920;12.880;2024-03-22T18:37:58;96734.16;;;10.81;71.43
78206;BME280;67480;48.920;12.880;2024-03-22T18:40:24;96746.59;;;10.86;71.11
78206;BME280;67480;48.920;12.880;2024-03-22T18:42:50;96737.00;;;10.80;71.50
78206;BME280;67480;48.920;12.880;2024-03-22T18:45:15;96744.66;;;10.81;71.29
78206;BME280;67480;48.920;12.880;2024-03-22T18:47:40;96733.00;;;10.77;71.61
78206;BME280;67480;48.920;12.880;2024-03-22T18:50:06;96729.38;;;10.78;71.60
78206;BME280;67480;48.920;12.880;2024-03-22T18:52:35;96725.34;;;10.76;71.55
78206;BME280;67480;48.920;12.880;2024-03-22T18:55:02;96721.72;;;10.77;71.54
78206;BME280;67480;48.920;12.880;2024-03-22T18:57:28;96728.59;;;10.78;71.45
78206;BME280;67480;48.920;12.880;2024-03-22T18:59:53;96724.34;;;10.77;71.94
78206;BME280;67480;48.920;12.880;2024-03-22T19:02:19;96720.56;;;10.73;71.53
78206;BME280;67480;48.920;12.880;2024-03-22T19:04:44;96718.09;;;10.78;71.43
78206;BME280;67480;48.920;12.880;2024-03-22T19:07:10;96720.09;;;10.76;71.41
78206;BME280;67480;48.920;12.880;2024-03-22T19:09:35;96708.47;;;10.72;71.37
78206;BME280;67480;48.920;12.880;2024-03-22T19:12:00;96706.88;;;10.71;71.66
78206;BME280;67480;48.920;12.880;2024-03-22T19:14:26;96706.06;;;10.70;71.92
78206;BME280;67480;48.920;12.880;2024-03-22T19:16:51;96712.56;;;10.68;72.25
78206;BME280;67480;48.920;12.880;2024-03-22T19:19:17;96704.50;;;10.69;72.08
78206;BME280;67480;48.920;12.880;2024-03-22T19:21:45;96704.50;;;10.69;72.31
78206;BME280;67480;48.920;12.880;2024-03-22T19:24:10;96701.03;;;10.69;72.23
78206;BME280;67480;48.920;12.880;2024-03-22T19:26:36;96696.84;;;10.68;72.05
78206;BME280;67480;48.920;12.880;2024-03-22T19:29:03;96691.00;;;10.66;72.45
78206;BME280;67480;48.920;12.880;2024-03-22T19:31:29;96704.50;;;10.69;72.32
78206;BME280;67480;48.920;12.880;2024-03-22T19:33:54;96694.22;;;10.68;72.15
78206;BME280;67480;48.920;12.880;2024-03-22T19:36:19;96678.72;;;10.66;71.75
78206;BME280;67480;48.920;12.880;2024-03-22T19:38:45;96686.69;;;10.71;71.81
78206;BME280;67480;48.920;12.880;2024-03-22T19:41:11;96680.31;;;10.67;71.92
78206;BME280;67480;48.920;12.880;2024-03-22T19:43:36;96669.03;;;10.67;71.99
78206;BME280;67480;48.920;12.880;2024-03-22T19:46:02;96671.66;;;10.67;71.89
78206;BME280;67480;48.920;12.880;2024-03-22T19:48:28;96668.22;;;10.66;71.55
78206;BME280;67480;48.920;12.880;2024-03-22T19:50:54;96667.22;;;10.67;72.00
78206;BME280;67480;48.920;12.880;2024-03-22T19:53:19;96661.63;;;10.64;72.04
78206;BME280;67480;48.920;12.880;2024-03-22T19:55:44;96658.19;;;10.63;71.91
78206;BME280;67480;48.920;12.880;2024-03-22T19:58:10;96655.38;;;10.65;71.88
78206;BME280;67480;48.920;12.880;2024-03-22T20:00:35;96650.91;;;10.65;71.21
78206;BME280;67480;48.920;12.880;2024-03-22T20:03:01;96655.94;;;10.67;71.64
78206;BME280;67480;48.920;12.880;2024-03-22T20:05:26;96653.09;;;10.68;71.73
78206;BME280;67480;48.920;12.880;2024-03-22T20:07:51;96651.25;;;10.69;71.72
78206;BME280;67480;48.920;12.880;2024-03-22T20:10:16;96647.63;;;10.70;71.53
78206;BME280;67480;48.920;12.880;2024-03-22T20:12:42;96647.63;;;10.70;71.54
78206;BME280;67480;48.920;12.880;2024-03-22T20:15:09;96642.38;;;10.70;71.87
78206;BME280;67480;48.920;12.880;2024-03-22T20:17:35;96641.59;;;10.69;71.59
78206;BME280;67480;48.920;12.880;2024-03-22T20:20:01;96641.59;;;10.69;71.61
78206;BME280;67480;48.920;12.880;2024-03-22T20:22:27;96638.97;;;10.69;71.21